Flight Track Log - Related Links

Times and Time Zones

All times are in EDT time to prevent confusion due to time zone crossing. See the JIA2342 flight status page for this flight to view local times or setup timezone preferences in your user account.

Time Position Orientation Groundspeed Altitude Reporting Facility
EDT Latitude Longitude Course Direction KTS MPH feet Rate Location/Type
Tue 08:14:52 PM 38.8667 -77.0500 90° East 167 192 1,100  Level Potomac TRACON
Tue 08:17:00 PM 38.9782 -76.6602 57° Northeast  Level FlightAware Approximate
Tue 08:17:04 PM 38.9767 -77.1189 334° Northwest 204 235 6,700  Level Washington Center
Tue 08:18:00 PM 39.0271 -76.5355 67° East  Level FlightAware Approximate
Tue 08:18:02 PM 38.9903 -77.0283 79° East 154 177 9,500  Level Washington Center
Tue 08:19:00 PM 39.0764 -76.4106 61° Northeast  Level FlightAware Approximate
Tue 08:19:02 PM 39.0103 -76.9325 75° East 206 237 11,600  Level Washington Center
Tue 08:20:00 PM 39.1167 -76.2837 90° East  Level FlightAware Approximate
Tue 08:20:04 PM 39.0300 -76.8394 75° East 244 281 13,900  Level Washington Center
Tue 08:21:02 PM 39.0517 -76.7328 75° East 278 320 15,100 1,361 Climbing Washington Center
Tue 08:22:03 PM 39.0758 -76.6131 75° East 313 360 16,600 1,328 Climbing Washington Center
Tue 08:23:04 PM 39.0975 -76.4903 77° East 339 390 17,800 1,091 Climbing Washington Center
Tue 08:24:04 PM 39.1236 -76.3622 75° East 355 409 18,800 610 Climbing Washington Center
Tue 08:25:02 PM 39.1514 -76.2258 75° East 368 423 19,000 101 Climbing Washington Center
Tue 08:26:03 PM 39.1728 -76.0922 78° East 399 459 19,000 148 Level Washington Center
Tue 08:27:04 PM 39.2442 -75.9694 53° Northeast 411 473 19,300 655 Climbing Washington Center
Tue 08:28:02 PM 39.3153 -75.8464 53° Northeast 411 473 20,300 1,017 Climbing Washington Center
Tue 08:29:02 PM 39.3864 -75.7258 53° Northeast 421 484 21,300 843 Climbing Washington Center
Tue 08:30:03 PM 39.4594 -75.6022 53° Northeast 421 484 22,000 347 Climbing Washington Center
Tue 08:31:03 PM 39.5342 -75.4786 52° Northeast 426 490 22,000 353 Level Washington Center
Tue 08:32:02 PM 39.6069 -75.3572 52° Northeast 431 496 22,700 1,100 Climbing Washington Center
Tue 08:33:03 PM 39.6839 -75.2411 49° Northeast 431 496 24,200 1,131 Climbing Washington Center
Tue 08:34:04 PM 39.7689 -75.1164 48° Northeast 424 488 25,000 555 Climbing Washington Center
Tue 08:35:56 PM 39.9203 -74.9011 47° Northeast 421 484 25,800 698 Climbing New York Center
Tue 08:36:56 PM 40.0014 -74.7867 47° Northeast 426 490 27,000 605 Climbing New York Center
Tue 08:37:55 PM 40.0739 -74.6797 48° Northeast 426 490 27,000  Level New York Center
Tue 08:38:56 PM 40.1736 -74.5631 42° Northeast 426 490 27,000  Level New York Center
Tue 08:39:57 PM 40.2728 -74.4544 40° Northeast 438 504 27,000  Level New York Center
Tue 08:40:55 PM 40.3678 -74.3450 41° Northeast 447 514 27,000 -228 Level New York Center
Tue 08:43:01 PM 40.5517 -74.1336 41° Northeast 441 507 26,300 -590 Descending Boston Center
Tue 08:43:58 PM 40.6556 -74.0186 40° Northeast 441 507 25,200 -1,077 Descending Boston Center
Tue 08:44:58 PM 40.7506 -73.9139 40° Northeast 441 507 24,200 -595 Descending Boston Center
Tue 08:45:59 PM 40.8456 -73.8147 38° Northeast 436 502 24,000 -492 Descending Boston Center
Tue 08:47:00 PM 40.9486 -73.7344 30° Northeast 436 502 23,200 -504 Descending Boston Center
Tue 08:47:58 PM 41.0600 -73.6594 27° Northeast 436 502 23,000 -407 Descending Boston Center
Tue 08:48:58 PM 41.1669 -73.5872 27° Northeast 436 502 22,400 -1,268 Descending Boston Center
Tue 08:50:01 PM 41.2775 -73.5947 357° North 399 459 20,400 -1,900 Descending Boston Center
Tue 08:50:58 PM 41.3794 -73.6075 355° North 399 459 18,600 -1,271 Descending Boston Center
Tue 08:51:59 PM 41.4981 -73.6264 353° North 400 460 17,900 -1,091 Descending Boston Center
Tue 08:52:59 PM 41.5936 -73.6392 354° North 371 427 16,400 -1,686 Descending Boston Center
Tue 08:54:00 PM 41.6875 -73.6522 354° North 345 397 14,500 -2,050 Descending Boston Center
Tue 08:54:59 PM 41.7811 -73.6650 354° North 334 384 12,300 -1,700 Descending Boston Center
Tue 08:56:00 PM 41.8747 -73.6781 354° North 334 384 11,100 -645 Descending Boston Center
Tue 08:57:00 PM 41.9619 -73.6908 354° North 328 377 11,000 -51 Descending Boston Center
Tue 08:57:58 PM 42.0453 -73.7036 354° North 305 351 11,000  Level Boston Center
Tue 08:58:53 PM 42.1161 -73.7136 354° North 288 331 11,000  Level Boston Center
Tue 08:59:53 PM 42.1950 -73.7264 353° North 285 328 11,000 -709 Level Boston Center
Tue 09:01:00 PM 42.2847 -73.7367 355° North 286 329 9,500 -1,688 Descending Boston Center
Tue 09:02:01 PM 42.3594 -73.7467 354° North 281 323 7,400 -1,967 Descending Boston Center
Tue 09:03:02 PM 42.4364 -73.7594 353° North 264 304 5,500 -1,932 Descending Boston Center
Tue 09:03:59 PM 42.5053 -73.7667 356° North 266 306 3,600 -1,729 Descending Boston Center
Tue 09:05:00 PM 42.5739 -73.7764 354° North 256 295 2,100 -793 Descending Boston Center
Tue 09:06:00 PM 42.6239 -73.7861 352° North 251 289 2,000 -339 Descending Boston Center
Tue 09:07:04 PM 42.6714 -73.8039 345° North 119 137 1,400 -528 Descending Boston Center
Tue 09:08:05 PM 42.7089 -73.8075 356° North 130 150 900 -492 Descending Boston Center
Tue 09:12:00 PM 42.7491 -73.8020 354° North  Level Estimated
Tue 09:19:00 PM 42.7491 -73.8020 171° South  Level Estimated

Login

Don't have an account? Register now (free) for customized features, flight alerts, and more!